createdAt,value
2018-06-13T00:02:07.110Z,15.10
2018-06-13T00:04:35.305Z,15.10
2018-06-13T00:07:03.558Z,15.00
2018-06-13T00:09:32.594Z,15.10
2018-06-13T00:14:28.789Z,15.10
2018-06-13T00:16:57.730Z,15.10
2018-06-13T00:19:26.001Z,15.00
2018-06-13T00:21:54.261Z,15.00
2018-06-13T00:24:23.155Z,15.00
2018-06-13T00:26:51.406Z,15.00
2018-06-13T00:29:19.613Z,14.90
2018-06-13T00:31:48.274Z,14.90
2018-06-13T00:34:16.481Z,14.90
2018-06-13T00:36:44.670Z,14.90
2018-06-13T00:39:12.918Z,14.80
2018-06-13T00:41:41.565Z,14.90
2018-06-13T00:44:11.265Z,14.80
2018-06-13T00:46:40.049Z,14.80
2018-06-13T00:49:08.219Z,14.70
2018-06-13T00:51:36.441Z,14.70
2018-06-13T00:54:04.679Z,14.70
2018-06-13T00:56:33.791Z,14.70
2018-06-13T00:59:02.038Z,14.60
2018-06-13T01:01:32.538Z,14.70
2018-06-13T01:04:00.738Z,14.70
2018-06-13T01:06:28.930Z,14.80
2018-06-13T01:08:57.113Z,14.80
2018-06-13T01:11:25.313Z,14.70
2018-06-13T01:13:53.516Z,14.70
2018-06-13T01:16:21.769Z,14.70
2018-06-13T01:18:51.218Z,14.60
2018-06-13T01:21:21.033Z,14.60
2018-06-13T01:23:49.738Z,14.50
2018-06-13T01:26:18.301Z,14.20
2018-06-13T01:28:46.476Z,13.90
2018-06-13T01:31:14.693Z,13.70
2018-06-13T01:33:42.893Z,13.60
2018-06-13T01:38:39.809Z,13.90
2018-06-13T01:41:08.973Z,14.10
2018-06-13T01:43:37.251Z,14.20
2018-06-13T01:46:05.494Z,14.10
2018-06-13T01:48:33.697Z,13.90
2018-06-13T01:51:02.766Z,13.90
2018-06-13T01:53:32.058Z,13.70
2018-06-13T01:56:00.264Z,13.60
2018-06-13T01:58:28.461Z,13.70
2018-06-13T02:00:56.689Z,14.00
2018-06-13T02:03:24.881Z,14.20
2018-06-13T02:05:53.089Z,14.30
2018-06-13T02:08:21.282Z,14.30
2018-06-13T02:10:49.493Z,14.30
2018-06-13T02:13:17.736Z,14.40
2018-06-13T02:15:45.902Z,14.40
2018-06-13T02:18:14.153Z,14.50
2018-06-13T02:20:43.749Z,14.50
2018-06-13T02:23:12.445Z,14.50
2018-06-13T02:25:40.662Z,14.50
2018-06-13T02:28:09.421Z,14.50
2018-06-13T02:30:37.646Z,14.40
2018-06-13T02:33:05.885Z,14.40
2018-06-13T02:35:34.100Z,14.40
2018-06-13T02:38:03.342Z,14.30
2018-06-13T02:40:31.526Z,14.20
2018-06-13T02:42:59.753Z,14.10
2018-06-13T02:45:27.941Z,14.10
2018-06-13T02:47:56.201Z,14.10
2018-06-13T02:50:25.612Z,14.00
2018-06-13T02:52:54.558Z,14.10
2018-06-13T02:55:23.509Z,14.10
2018-06-13T02:57:51.725Z,14.00
2018-06-13T03:00:20.598Z,13.90
2018-06-13T03:02:48.790Z,13.80
2018-06-13T03:05:16.977Z,13.80
2018-06-13T03:07:45.205Z,13.80
2018-06-13T03:10:13.394Z,13.80
2018-06-13T03:12:41.667Z,13.80
2018-06-13T03:15:09.864Z,13.80
2018-06-13T03:17:38.140Z,13.80
2018-06-13T03:20:06.982Z,13.80
2018-06-13T03:22:35.194Z,13.70
2018-06-13T03:25:03.514Z,13.70
2018-06-13T03:29:59.709Z,13.60
2018-06-13T03:32:27.929Z,13.50
2018-06-13T03:34:56.954Z,13.60
2018-06-13T03:37:25.231Z,13.50
2018-06-13T03:39:53.446Z,13.50
2018-06-13T03:42:21.664Z,13.40
2018-06-13T03:44:49.849Z,13.40
2018-06-13T03:47:18.054Z,13.30
2018-06-13T03:49:46.272Z,13.30
2018-06-13T03:52:14.519Z,13.30
2018-06-13T03:54:42.733Z,13.30
2018-06-13T03:57:10.997Z,13.20
2018-06-13T04:02:07.550Z,13.30
2018-06-13T04:04:35.758Z,13.20
2018-06-13T04:07:05.972Z,13.30
2018-06-13T04:09:34.600Z,13.40
2018-06-13T04:12:03.137Z,13.50
2018-06-13T04:14:31.357Z,13.50
2018-06-13T04:16:59.538Z,13.40
2018-06-13T04:19:28.047Z,13.50
2018-06-13T04:21:56.250Z,13.70
2018-06-13T04:24:24.426Z,13.80
2018-06-13T04:26:52.678Z,13.80
2018-06-13T04:29:22.601Z,13.80
2018-06-13T04:31:50.793Z,13.90
2018-06-13T04:34:18.998Z,13.70
2018-06-13T04:36:48.938Z,13.70
2018-06-13T04:39:18.294Z,13.80
2018-06-13T04:41:46.902Z,13.70
2018-06-13T04:44:15.173Z,13.70
2018-06-13T04:46:43.370Z,13.60
2018-06-13T04:49:11.560Z,13.50
2018-06-13T04:51:39.802Z,13.50
2018-06-13T04:56:36.618Z,13.60
2018-06-13T04:59:05.426Z,13.60
2018-06-13T05:01:33.625Z,13.70
2018-06-13T05:04:01.832Z,13.90
2018-06-13T05:08:57.957Z,14.30
2018-06-13T05:11:26.531Z,14.30
2018-06-13T05:13:54.726Z,14.60
2018-06-13T05:16:22.933Z,14.70
2018-06-13T05:18:51.698Z,14.70
2018-06-13T05:21:19.885Z,14.80
2018-06-13T05:23:48.093Z,14.90
2018-06-13T05:26:16.329Z,15.10
2018-06-13T05:28:44.578Z,15.20
2018-06-13T05:31:13.113Z,15.20
2018-06-13T05:33:41.338Z,15.30
2018-06-13T05:36:09.557Z,15.30
2018-06-13T05:38:38.307Z,15.00
2018-06-13T05:41:06.787Z,14.90
2018-06-13T05:46:02.984Z,15.00
2018-06-13T05:48:31.212Z,15.00
2018-06-13T05:50:59.442Z,15.40
2018-06-13T05:53:27.637Z,15.40
2018-06-13T05:55:55.857Z,15.50
2018-06-13T05:58:24.961Z,15.60
2018-06-13T06:00:53.702Z,15.70
2018-06-13T06:03:21.889Z,15.70
2018-06-13T06:05:50.098Z,15.60
2018-06-13T06:08:18.311Z,15.50
2018-06-13T06:10:46.518Z,15.50
2018-06-13T06:13:15.106Z,15.60
2018-06-13T06:18:11.614Z,15.60
2018-06-13T06:20:39.964Z,15.60
2018-06-13T06:23:08.193Z,15.50
2018-06-13T06:25:36.472Z,15.40
2018-06-13T06:28:04.689Z,15.30
2018-06-13T06:30:32.850Z,15.00
2018-06-13T06:33:01.726Z,15.00
2018-06-13T06:35:29.941Z,15.00
2018-06-13T06:37:58.794Z,15.00
2018-06-13T06:40:28.154Z,14.90
2018-06-13T06:42:56.609Z,14.70
2018-06-13T06:45:24.826Z,14.80
2018-06-13T06:47:53.002Z,14.90
2018-06-13T06:50:21.269Z,15.10
2018-06-13T06:52:51.521Z,15.20
2018-06-13T06:55:21.301Z,15.30
2018-06-13T06:57:49.454Z,15.30
2018-06-13T07:00:17.705Z,15.30
2018-06-13T07:02:45.893Z,15.40
2018-06-13T07:05:15.085Z,15.50
2018-06-13T07:07:43.341Z,15.50
2018-06-13T07:10:11.505Z,15.50
2018-06-13T07:12:39.711Z,15.50
2018-06-13T07:15:07.894Z,15.50
2018-06-13T07:17:36.133Z,15.60
2018-06-13T07:20:04.683Z,15.60
2018-06-13T07:22:33.274Z,15.80
2018-06-13T07:25:01.811Z,15.70
2018-06-13T07:27:29.996Z,15.70
2018-06-13T07:29:58.712Z,15.70
2018-06-13T07:32:26.900Z,15.50
2018-06-13T07:37:24.001Z,15.50
2018-06-13T07:39:52.292Z,15.60
2018-06-13T07:42:20.506Z,15.80
2018-06-13T07:44:48.695Z,15.70
2018-06-13T07:47:17.201Z,15.60
2018-06-13T07:49:45.461Z,15.70
2018-06-13T07:52:14.073Z,15.80
2018-06-13T07:54:42.922Z,15.50
2018-06-13T07:57:11.102Z,15.70
2018-06-13T07:59:42.631Z,15.90
2018-06-13T08:02:10.928Z,16.10
2018-06-13T08:04:39.092Z,16.20
2018-06-13T08:07:07.322Z,16.00
2018-06-13T08:09:35.522Z,16.10
2018-06-13T08:12:03.743Z,16.10
2018-06-13T08:14:32.494Z,15.80
2018-06-13T08:17:01.607Z,15.70
2018-06-13T08:19:29.759Z,15.80
2018-06-13T08:21:59.252Z,15.60
2018-06-13T08:24:27.550Z,15.40
2018-06-13T08:26:55.729Z,15.60
2018-06-13T08:29:26.221Z,15.70
2018-06-13T08:31:55.486Z,15.80
2018-06-13T08:34:23.646Z,16.10
2018-06-13T08:36:52.323Z,16.40
2018-06-13T08:41:50.002Z,16.40
2018-06-13T08:46:46.507Z,17.00
2018-06-13T08:49:14.914Z,16.50
2018-06-13T08:51:43.882Z,16.40
2018-06-13T08:54:12.643Z,16.70
2018-06-13T08:56:41.194Z,16.40
2018-06-13T08:59:09.533Z,16.40
2018-06-13T09:01:38.756Z,16.30
2018-06-13T09:04:06.952Z,16.40
2018-06-13T09:06:35.479Z,16.60
2018-06-13T09:09:06.303Z,16.90
2018-06-13T09:11:34.884Z,17.20
2018-06-13T09:14:04.394Z,17.00
2018-06-13T09:16:32.590Z,16.70
2018-06-13T09:19:01.879Z,16.50
2018-06-13T09:21:30.258Z,16.80
2018-06-13T09:23:58.463Z,17.00
2018-06-13T09:26:27.079Z,16.60
2018-06-13T09:28:56.764Z,16.50
2018-06-13T09:31:25.975Z,16.80
2018-06-13T09:33:54.294Z,17.10
2018-06-13T09:36:22.541Z,17.30
2018-06-13T09:38:51.201Z,17.20
2018-06-13T09:41:19.435Z,16.80
2018-06-13T09:43:47.648Z,17.00
2018-06-13T09:46:16.980Z,17.10
2018-06-13T09:48:45.871Z,17.00
2018-06-13T09:51:14.081Z,16.80
2018-06-13T09:53:42.326Z,17.10
2018-06-13T09:56:10.588Z,17.80
2018-06-13T09:58:44.282Z,18.50
2018-06-13T10:01:17.820Z,18.90
2018-06-13T10:03:45.982Z,19.60
2018-06-13T10:06:14.153Z,20.30
2018-06-13T10:08:42.404Z,20.80
2018-06-13T10:11:10.583Z,21.00
2018-06-13T10:13:38.729Z,21.10
2018-06-13T10:16:06.934Z,21.00
2018-06-13T10:18:35.528Z,21.00
2018-06-13T10:21:03.663Z,20.80
2018-06-13T10:23:31.884Z,20.50
2018-06-13T10:26:00.581Z,19.80
2018-06-13T10:28:28.742Z,19.10
2018-06-13T10:30:57.922Z,18.70
2018-06-13T10:33:26.082Z,19.00
2018-06-13T10:35:54.265Z,19.30
2018-06-13T10:38:22.922Z,19.90
2018-06-13T10:40:51.122Z,20.20
2018-06-13T10:45:48.121Z,20.50
2018-06-13T10:48:16.285Z,20.70
2018-06-13T10:50:45.438Z,20.80
2018-06-13T10:53:13.615Z,20.30
2018-06-13T10:55:41.857Z,20.40
2018-06-13T10:58:09.974Z,20.20
2018-06-13T11:00:38.821Z,19.90
2018-06-13T11:03:08.306Z,19.80
2018-06-13T11:05:36.649Z,19.80
2018-06-13T11:08:04.989Z,19.80
2018-06-13T11:10:33.535Z,19.90
2018-06-13T11:13:01.685Z,19.90
2018-06-13T11:15:30.305Z,19.90
2018-06-13T11:17:58.470Z,19.70
2018-06-13T11:20:26.688Z,19.20
2018-06-13T11:22:56.090Z,19.20
2018-06-13T11:25:24.243Z,19.20
2018-06-13T11:27:53.315Z,19.30
2018-06-13T11:30:21.877Z,19.30
2018-06-13T11:32:50.397Z,19.30
2018-06-13T11:35:18.572Z,19.00
2018-06-13T11:37:47.901Z,18.70
2018-06-13T11:40:16.057Z,18.60
2018-06-13T11:42:45.218Z,18.70
2018-06-13T11:45:14.965Z,18.90
2018-06-13T11:47:43.146Z,19.20
2018-06-13T11:50:11.903Z,19.40
2018-06-13T11:52:40.477Z,19.20
2018-06-13T11:55:09.521Z,18.90
2018-06-13T11:57:38.298Z,18.70
2018-06-13T12:00:07.016Z,18.80
2018-06-13T12:02:35.214Z,19.00
2018-06-13T12:05:03.817Z,19.30
2018-06-13T12:07:31.976Z,19.20
2018-06-13T12:10:01.521Z,19.10
2018-06-13T12:12:29.714Z,19.40
2018-06-13T12:14:59.114Z,18.60
2018-06-13T12:17:27.315Z,18.20
2018-06-13T12:19:55.517Z,18.40
2018-06-13T12:22:23.678Z,18.40
2018-06-13T12:24:52.222Z,18.80
2018-06-13T12:27:21.445Z,19.20
2018-06-13T12:29:50.630Z,19.50
2018-06-13T12:32:19.651Z,19.40
2018-06-13T12:34:48.748Z,19.60
2018-06-13T12:37:17.355Z,19.60
2018-06-13T12:39:45.543Z,19.60
2018-06-13T12:42:13.722Z,19.50
2018-06-13T12:44:42.150Z,19.20
2018-06-13T12:47:10.810Z,19.30
2018-06-13T12:49:39.620Z,19.20
2018-06-13T12:52:07.824Z,19.60
2018-06-13T12:54:36.033Z,20.10
2018-06-13T12:57:04.894Z,20.50
2018-06-13T12:59:33.577Z,20.70
2018-06-13T13:02:03.556Z,21.00
2018-06-13T13:04:32.003Z,21.30
2018-06-13T13:07:00.154Z,21.30
2018-06-13T13:09:28.350Z,21.50
2018-06-13T13:11:56.517Z,21.60
2018-06-13T13:14:25.584Z,21.50
2018-06-13T13:16:53.777Z,21.00
2018-06-13T13:19:22.637Z,20.20
2018-06-13T13:21:51.406Z,19.70
2018-06-13T13:24:20.109Z,19.60
2018-06-13T13:26:48.510Z,19.70
2018-06-13T13:29:16.738Z,19.60
2018-06-13T13:31:46.286Z,19.40
2018-06-13T13:34:15.111Z,19.20
2018-06-13T13:36:43.567Z,19.20
2018-06-13T13:39:12.201Z,19.20
2018-06-13T13:41:41.773Z,19.10
2018-06-13T13:44:10.018Z,18.90
2018-06-13T13:46:39.498Z,18.70
2018-06-13T13:49:07.690Z,18.60
2018-06-13T13:51:35.901Z,18.50
2018-06-13T13:54:04.749Z,18.40
2018-06-13T13:56:33.250Z,18.50
2018-06-13T13:59:01.417Z,18.70
2018-06-13T14:01:29.585Z,18.80
2018-06-13T14:03:57.791Z,18.90
2018-06-13T14:06:26.557Z,19.00
2018-06-13T14:08:54.769Z,19.20
2018-06-13T14:11:23.182Z,19.20
2018-06-13T14:13:54.078Z,19.50
2018-06-13T14:16:22.302Z,19.70
2018-06-13T14:18:53.577Z,19.90
2018-06-13T14:21:21.766Z,19.90
2018-06-13T14:23:49.906Z,20.20
2018-06-13T14:26:18.441Z,20.40
2018-06-13T14:28:46.585Z,20.40
2018-06-13T14:31:14.837Z,20.30
2018-06-13T14:33:43.026Z,20.10
2018-06-13T14:36:11.215Z,20.10
2018-06-13T14:38:39.369Z,19.90
2018-06-13T14:41:08.740Z,19.90
2018-06-13T14:43:36.895Z,19.70
2018-06-13T14:46:05.050Z,19.60
2018-06-13T14:48:34.501Z,19.30
2018-06-13T14:51:03.518Z,19.00
2018-06-13T14:53:31.953Z,18.70
2018-06-13T14:56:06.124Z,18.60
2018-06-13T14:58:34.294Z,18.60
2018-06-13T15:01:02.487Z,18.20
2018-06-13T15:03:30.695Z,18.40
2018-06-13T15:05:59.465Z,18.70
2018-06-13T15:08:27.640Z,18.70
2018-06-13T15:10:55.794Z,18.20
2018-06-13T15:13:24.008Z,18.40
2018-06-13T15:15:52.266Z,18.80
2018-06-13T15:18:20.474Z,19.10
2018-06-13T15:20:48.678Z,19.50
2018-06-13T15:23:16.935Z,19.80
2018-06-13T15:25:45.081Z,20.10
2018-06-13T15:28:13.641Z,20.20
2018-06-13T15:30:42.289Z,20.30
2018-06-13T15:33:10.466Z,20.20
2018-06-13T15:35:38.642Z,20.00
2018-06-13T15:38:06.804Z,19.90
2018-06-13T15:40:35.002Z,19.80
2018-06-13T15:43:03.795Z,19.70
2018-06-13T15:45:33.020Z,19.70
2018-06-13T15:48:01.217Z,19.80
2018-06-13T15:50:29.441Z,19.90
2018-06-13T15:52:57.658Z,20.20
2018-06-13T15:55:25.858Z,20.30
2018-06-13T15:57:54.025Z,20.30
2018-06-13T16:00:23.021Z,20.40
2018-06-13T16:02:51.563Z,20.30
2018-06-13T16:05:19.750Z,20.50
2018-06-13T16:07:48.503Z,20.40
2018-06-13T16:10:18.686Z,20.30
2018-06-13T16:12:46.873Z,20.50
2018-06-13T16:15:15.054Z,20.80
2018-06-13T16:17:43.718Z,20.70
2018-06-13T16:20:12.811Z,20.70
2018-06-13T16:22:41.004Z,20.70
2018-06-13T16:25:09.629Z,20.60
2018-06-13T16:27:37.798Z,20.50
2018-06-13T16:30:06.093Z,20.40
2018-06-13T16:32:35.108Z,20.20
2018-06-13T16:35:04.185Z,19.80
2018-06-13T16:37:32.377Z,19.50
2018-06-13T16:40:01.321Z,19.40
2018-06-13T16:42:29.539Z,19.30
2018-06-13T16:44:57.732Z,19.10
2018-06-13T16:47:26.812Z,19.00
2018-06-13T16:49:54.970Z,18.90
2018-06-13T16:52:34.566Z,18.50
2018-06-13T16:55:24.739Z,18.40
2018-06-13T16:57:54.155Z,18.30
2018-06-13T17:00:22.894Z,18.10
2018-06-13T17:02:52.505Z,18.10
2018-06-13T17:05:20.702Z,18.00
2018-06-13T17:07:49.278Z,17.90
2018-06-13T17:10:17.825Z,17.90
2018-06-13T17:12:46.044Z,17.70
2018-06-13T17:15:14.259Z,17.60
2018-06-13T17:17:42.971Z,17.60
2018-06-13T17:20:11.146Z,17.50
2018-06-13T17:22:39.378Z,17.30
2018-06-13T17:25:08.070Z,17.10
2018-06-13T17:27:36.336Z,17.00
2018-06-13T17:30:06.371Z,16.90
2018-06-13T17:32:34.593Z,16.80
2018-06-13T17:35:03.110Z,16.70
2018-06-13T17:37:32.015Z,16.60
2018-06-13T17:40:00.320Z,16.50
2018-06-13T17:42:28.521Z,16.50
2018-06-13T17:44:56.729Z,16.50
2018-06-13T17:47:24.969Z,16.50
2018-06-13T17:49:53.229Z,16.50
2018-06-13T17:52:21.475Z,16.50
2018-06-13T17:54:49.700Z,16.50
2018-06-13T17:57:17.939Z,16.70
2018-06-13T17:59:46.450Z,16.70
2018-06-13T18:02:14.657Z,16.60
2018-06-13T18:04:43.575Z,16.50
2018-06-13T18:07:12.145Z,16.50
2018-06-13T18:09:40.337Z,16.50
2018-06-13T18:12:08.617Z,16.30
2018-06-13T18:14:37.425Z,16.20
2018-06-13T18:17:06.248Z,16.10
2018-06-13T18:19:34.714Z,16.10
2018-06-13T18:22:03.391Z,16.10
2018-06-13T18:24:33.774Z,16.10
2018-06-13T18:27:01.956Z,16.10
2018-06-13T18:29:30.191Z,16.10
2018-06-13T18:31:58.417Z,16.20
2018-06-13T18:34:26.590Z,16.20
2018-06-13T18:36:54.867Z,16.00
2018-06-13T18:39:23.115Z,16.00
2018-06-13T18:41:52.228Z,16.00
2018-06-13T18:44:20.438Z,16.00
2018-06-13T18:46:48.653Z,15.90
2018-06-13T18:49:17.115Z,15.80
2018-06-13T18:51:45.322Z,15.70
2018-06-13T18:54:13.638Z,15.70
2018-06-13T18:56:43.391Z,15.70
2018-06-13T18:59:11.666Z,15.60
2018-06-13T19:01:42.581Z,15.50
2018-06-13T19:04:10.910Z,15.50
2018-06-13T19:06:40.041Z,15.40
2018-06-13T19:09:09.973Z,15.30
2018-06-13T19:11:39.244Z,15.40
2018-06-13T19:14:08.148Z,15.40
2018-06-13T19:16:38.353Z,15.30
2018-06-13T19:19:07.437Z,15.20
2018-06-13T19:21:35.598Z,15.20
2018-06-13T19:24:05.782Z,15.20
2018-06-13T19:26:34.895Z,15.20
2018-06-13T19:29:04.106Z,15.20
2018-06-13T19:31:32.285Z,15.10
2018-06-13T19:34:00.499Z,15.10
2018-06-13T19:36:29.609Z,15.10
2018-06-13T19:38:57.772Z,15.00
2018-06-13T19:41:25.994Z,14.90
2018-06-13T19:43:55.246Z,14.90
2018-06-13T19:46:23.416Z,14.80
2018-06-13T19:48:54.014Z,14.80
2018-06-13T19:51:22.287Z,14.80
2018-06-13T19:53:55.994Z,14.80
2018-06-13T19:56:27.530Z,14.70
2018-06-13T19:58:56.207Z,14.70
2018-06-13T20:01:24.612Z,14.70
2018-06-13T20:03:58.605Z,14.60
2018-06-13T20:06:27.674Z,14.60
2018-06-13T20:08:55.878Z,14.50
2018-06-13T20:11:25.017Z,14.50
2018-06-13T20:13:58.649Z,14.60
2018-06-13T20:16:44.614Z,14.60
2018-06-13T20:19:18.261Z,14.60
2018-06-13T20:21:46.516Z,14.50
2018-06-13T20:24:14.717Z,14.60
2018-06-13T20:26:48.301Z,14.60
2018-06-13T20:29:21.933Z,14.70
2018-06-13T20:31:50.459Z,14.60
2018-06-13T20:34:18.617Z,14.60
2018-06-13T20:36:47.133Z,14.60
2018-06-13T20:39:15.968Z,14.70
2018-06-13T20:41:44.210Z,14.60
2018-06-13T20:44:12.518Z,14.60
2018-06-13T20:46:40.791Z,14.70
2018-06-13T20:51:36.991Z,14.70
2018-06-13T20:54:05.242Z,14.70
2018-06-13T20:56:34.744Z,14.80
2018-06-13T20:59:03.605Z,14.70
2018-06-13T21:01:31.803Z,14.70
2018-06-13T21:04:01.607Z,14.70
2018-06-13T21:06:30.137Z,14.70
2018-06-13T21:08:58.316Z,14.80
2018-06-13T21:11:26.581Z,14.80
2018-06-13T21:13:55.318Z,14.70
2018-06-13T21:16:23.576Z,14.70
2018-06-13T21:18:52.651Z,14.70
2018-06-13T21:21:20.886Z,14.70
2018-06-13T21:23:49.127Z,14.70
2018-06-13T21:26:17.702Z,14.60
2018-06-13T21:28:45.915Z,14.60
2018-06-13T21:31:14.131Z,14.50
2018-06-13T21:33:42.412Z,14.40
2018-06-13T21:36:10.999Z,14.30
2018-06-13T21:38:39.224Z,14.30
2018-06-13T21:41:07.430Z,14.20
2018-06-13T21:43:35.819Z,14.10
2018-06-13T21:46:03.981Z,14.20
2018-06-13T21:48:33.128Z,14.20
2018-06-13T21:51:01.341Z,14.10
2018-06-13T21:53:29.601Z,14.30
2018-06-13T21:58:26.357Z,14.20
2018-06-13T22:00:55.994Z,14.20
2018-06-13T22:03:24.206Z,14.20
2018-06-13T22:05:52.406Z,14.20
2018-06-13T22:08:20.886Z,14.20
2018-06-13T22:10:49.118Z,14.20
2018-06-13T22:13:17.370Z,14.30
2018-06-13T22:15:45.583Z,14.30
2018-06-13T22:18:13.777Z,14.30
2018-06-13T22:20:41.973Z,14.10
2018-06-13T22:23:11.289Z,13.90
2018-06-13T22:25:39.743Z,13.90
2018-06-13T22:28:08.214Z,13.90
2018-06-13T22:30:37.193Z,13.90
2018-06-13T22:35:33.387Z,14.00
2018-06-13T22:38:01.571Z,14.10
2018-06-13T22:40:29.774Z,14.10
2018-06-13T22:42:58.998Z,14.00
2018-06-13T22:45:27.511Z,14.10
2018-06-13T22:47:55.786Z,14.20
2018-06-13T22:50:24.207Z,14.10
2018-06-13T22:52:53.058Z,14.10
2018-06-13T22:55:21.289Z,14.10
2018-06-13T22:57:50.230Z,14.20
2018-06-13T23:00:33.190Z,14.10
2018-06-13T23:03:01.723Z,14.10
2018-06-13T23:05:29.915Z,14.10
2018-06-13T23:07:58.135Z,14.10
2018-06-13T23:12:54.310Z,14.10
2018-06-13T23:15:23.098Z,14.20
2018-06-13T23:17:51.332Z,14.00
2018-06-13T23:20:19.570Z,13.70
2018-06-13T23:22:48.445Z,13.40
2018-06-13T23:25:16.723Z,13.10
2018-06-13T23:27:45.809Z,13.00
2018-06-13T23:30:14.002Z,13.00
2018-06-13T23:32:42.235Z,13.20
2018-06-13T23:35:10.506Z,13.40
2018-06-13T23:40:06.654Z,13.70
2018-06-13T23:47:31.363Z,13.70
2018-06-13T23:52:27.569Z,13.50
2018-06-13T23:54:55.834Z,13.40
2018-06-13T23:57:24.117Z,13.40
2018-06-13T23:59:52.366Z,13.40
